createdAt,value
2022-08-09T00:01:26.564Z,101867.63
2022-08-09T00:04:24.978Z,101879.47
2022-08-09T00:06:56.206Z,101878.84
2022-08-09T00:09:24.429Z,101856.97
2022-08-09T00:11:58.512Z,101878.13
2022-08-09T00:14:37.765Z,101866.97
2022-08-09T00:17:05.733Z,101882.88
2022-08-09T00:19:32.288Z,101874.41
2022-08-09T00:22:00.899Z,101862.91
2022-08-09T00:24:31.945Z,101875.44
2022-08-09T00:26:59.743Z,101836.69
2022-08-09T00:29:39.463Z,101857.50
2022-08-09T00:32:14.240Z,101876.09
2022-08-09T00:34:52.944Z,101869.34
2022-08-09T00:37:19.592Z,101875.91
2022-08-09T00:40:12.712Z,101869.19
2022-08-09T00:44:15.691Z,101851.75
2022-08-09T00:45:20.897Z,101827.69
2022-08-09T00:47:47.599Z,101871.19
2022-08-09T00:50:15.152Z,101838.00
2022-08-09T00:52:42.083Z,101888.03
2022-08-09T00:55:10.334Z,101879.72
2022-08-09T00:57:59.235Z,101854.69
2022-08-09T01:00:26.746Z,101881.75
2022-08-09T01:03:02.472Z,101880.44
2022-08-09T01:05:51.018Z,101878.09
2022-08-09T01:08:26.624Z,101882.47
2022-08-09T01:11:08.591Z,101878.69
2022-08-09T01:13:58.517Z,101875.97
2022-08-09T01:16:30.369Z,101873.97
2022-08-09T01:19:02.047Z,101880.44
2022-08-09T01:21:50.798Z,101880.34
2022-08-09T01:24:33.020Z,101886.56
2022-08-09T01:27:07.830Z,101874.59
2022-08-09T01:29:40.976Z,101887.47
2022-08-09T01:32:32.552Z,101878.84
2022-08-09T01:35:18.236Z,101840.63
2022-08-09T01:38:09.846Z,101882.69
2022-08-09T01:40:42.084Z,101878.34
2022-08-09T01:43:10.596Z,101882.38
2022-08-09T01:45:44.683Z,101835.66
2022-08-09T01:48:16.234Z,101857.88
2022-08-09T01:50:48.113Z,101886.03
2022-08-09T01:53:19.842Z,101866.81
2022-08-09T01:55:49.871Z,101844.91
2022-08-09T01:58:17.473Z,101846.81
2022-08-09T02:00:46.132Z,101876.47
2022-08-09T02:03:14.807Z,101888.09
2022-08-09T02:06:04.199Z,101882.78
2022-08-09T02:08:41.211Z,101882.19
2022-08-09T02:11:18.818Z,101881.53
2022-08-09T02:14:06.389Z,101885.53
2022-08-09T02:16:53.218Z,101889.63
2022-08-09T02:19:24.736Z,101871.69
2022-08-09T02:22:27.312Z,101867.47
2022-08-09T02:25:04.220Z,101884.91
2022-08-09T02:27:57.967Z,101880.69
2022-08-09T02:30:22.091Z,101842.34
2022-08-09T02:32:53.316Z,101888.06
2022-08-09T02:36:01.160Z,101883.00
2022-08-09T02:38:22.217Z,101887.06
2022-08-09T02:41:10.674Z,101871.91
2022-08-09T02:43:42.550Z,101853.34
2022-08-09T02:46:24.573Z,101837.81
2022-08-09T02:48:51.618Z,101874.56
2022-08-09T02:51:20.519Z,101856.13
2022-08-09T02:53:59.706Z,101869.91
2022-08-09T02:56:28.849Z,101873.91
2022-08-09T02:58:56.076Z,101864.44
2022-08-09T03:01:29.708Z,101855.13
2022-08-09T03:04:16.492Z,101880.69
2022-08-09T03:06:46.035Z,101884.66
2022-08-09T03:09:17.282Z,101852.84
2022-08-09T03:12:05.242Z,101880.34
2022-08-09T03:14:32.034Z,101838.00
2022-08-09T03:17:02.316Z,101852.53
2022-08-09T03:19:57.859Z,101866.72
2022-08-09T03:22:25.309Z,101881.97
2022-08-09T03:25:26.053Z,101866.19
2022-08-09T03:27:56.567Z,101878.56
2022-08-09T03:30:29.931Z,101892.56
2022-08-09T03:33:05.592Z,101888.13
2022-08-09T03:36:11.735Z,101879.66
2022-08-09T03:38:28.955Z,101892.31
2022-08-09T03:40:57.853Z,101880.25
2022-08-09T03:43:24.442Z,101881.41
2022-08-09T03:46:04.115Z,101888.88
2022-08-09T03:48:50.918Z,101886.88
2022-08-09T03:51:55.339Z,101848.53
2022-08-09T03:54:06.579Z,101857.75
2022-08-09T03:56:38.919Z,101895.06
2022-08-09T03:59:13.562Z,101890.06
2022-08-09T04:01:41.962Z,101892.50
2022-08-09T04:04:10.126Z,101876.34
2022-08-09T04:06:48.955Z,101893.97
2022-08-09T04:09:42.039Z,101885.75
2022-08-09T04:12:11.790Z,101902.47
2022-08-09T04:15:00.998Z,101911.50
2022-08-09T04:17:26.301Z,101864.81
2022-08-09T04:19:56.587Z,101908.91
2022-08-09T04:22:23.591Z,101907.06
2022-08-09T04:24:50.237Z,101886.88
2022-08-09T04:27:22.159Z,101920.38
2022-08-09T04:29:49.582Z,101898.09
2022-08-09T04:32:16.404Z,101922.19
2022-08-09T04:34:54.349Z,101909.75
2022-08-09T04:37:23.993Z,101895.03
2022-08-09T04:40:11.681Z,101870.94
2022-08-09T04:42:48.378Z,101918.78
2022-08-09T04:45:16.546Z,101919.34
2022-08-09T04:48:00.914Z,101878.38
2022-08-09T04:50:31.741Z,101934.28
2022-08-09T04:53:02.072Z,101899.00
2022-08-09T04:55:38.333Z,101923.63
2022-08-09T04:58:09.716Z,101930.16
2022-08-09T05:00:36.659Z,101932.44
2022-08-09T05:03:30.047Z,101934.16
2022-08-09T05:06:06.853Z,101926.47
2022-08-09T05:08:35.069Z,101933.47
2022-08-09T05:11:02.718Z,101923.97
2022-08-09T05:13:29.418Z,101892.13
2022-08-09T05:16:00.216Z,101926.22
2022-08-09T05:18:55.195Z,101918.34
2022-08-09T05:21:24.602Z,101886.41
2022-08-09T05:24:00.437Z,101933.47
2022-08-09T05:26:36.656Z,101928.00
2022-08-09T05:29:17.776Z,101933.53
2022-08-09T05:31:57.206Z,101912.63
2022-08-09T05:34:31.156Z,101914.66
2022-08-09T05:37:06.355Z,101942.25
2022-08-09T05:39:42.302Z,101939.47
2022-08-09T05:42:10.035Z,101920.81
2022-08-09T05:44:44.774Z,101936.16
2022-08-09T05:47:14.835Z,101933.78
2022-08-09T05:50:26.745Z,101933.22
2022-08-09T05:52:30.740Z,101931.19
2022-08-09T05:55:03.304Z,101935.34
2022-08-09T05:57:55.631Z,101931.25
2022-08-09T06:00:29.836Z,101917.22
2022-08-09T06:03:01.365Z,101921.63
2022-08-09T06:05:54.512Z,101919.66
2022-08-09T06:08:24.447Z,101940.78
2022-08-09T06:10:55.600Z,101945.16
2022-08-09T06:13:22.749Z,101940.78
2022-08-09T06:15:51.523Z,101941.25
2022-08-09T06:18:25.326Z,101924.28
2022-08-09T06:20:54.622Z,101946.22
2022-08-09T06:23:55.671Z,101904.06
2022-08-09T06:26:20.829Z,101947.72
2022-08-09T06:28:59.297Z,101949.56
2022-08-09T06:31:31.087Z,101950.25
2022-08-09T06:34:06.732Z,101957.88
2022-08-09T06:36:33.987Z,101921.56
2022-08-09T06:39:02.712Z,101919.94
2022-08-09T06:42:00.512Z,101894.56
2022-08-09T06:44:22.572Z,101947.59
2022-08-09T06:46:54.971Z,101959.22
2022-08-09T06:49:44.769Z,101910.50
2022-08-09T06:52:10.309Z,101922.38
2022-08-09T06:54:38.612Z,101957.25
2022-08-09T06:57:05.625Z,101943.69
2022-08-09T07:00:51.497Z,101958.75
2022-08-09T07:02:21.579Z,101932.22
2022-08-09T07:04:48.164Z,101967.91
2022-08-09T07:08:00.909Z,101944.28
2022-08-09T07:10:14.038Z,101955.22
2022-08-09T07:12:57.538Z,101937.13
2022-08-09T07:15:53.723Z,101964.25
2022-08-09T07:18:11.995Z,101966.25
2022-08-09T07:20:40.958Z,101949.47
2022-08-09T07:23:18.833Z,101970.31
2022-08-09T07:25:52.472Z,101972.84
2022-08-09T07:28:29.744Z,101968.13
2022-08-09T07:30:56.678Z,101901.13
2022-08-09T07:33:23.394Z,101955.63
2022-08-09T07:35:53.543Z,101918.88
2022-08-09T07:38:21.269Z,101958.41
2022-08-09T07:41:08.254Z,101931.53
2022-08-09T07:43:49.614Z,101960.63
2022-08-09T07:47:18.060Z,101962.28
2022-08-09T07:50:04.813Z,101964.47
2022-08-09T07:52:31.453Z,101955.16
2022-08-09T07:54:58.298Z,101972.34
2022-08-09T07:57:33.868Z,101960.94
2022-08-09T08:00:04.202Z,101973.03
2022-08-09T08:02:31.042Z,101972.84
2022-08-09T08:04:57.692Z,101928.47
2022-08-09T08:08:06.603Z,101969.66
2022-08-09T08:10:12.465Z,101935.47
2022-08-09T08:12:43.330Z,101970.19
2022-08-09T08:15:11.813Z,101937.72
2022-08-09T08:17:53.675Z,101935.09
2022-08-09T08:20:29.506Z,101963.09
2022-08-09T08:23:21.512Z,101976.59
2022-08-09T08:26:06.258Z,101978.38
2022-08-09T08:28:35.066Z,101964.69
2022-08-09T08:31:10.633Z,101973.34
2022-08-09T08:33:53.305Z,101932.84
2022-08-09T08:36:29.128Z,101970.03
2022-08-09T08:38:57.206Z,101928.84
2022-08-09T08:41:24.588Z,101969.94
2022-08-09T08:44:08.737Z,101949.69
2022-08-09T08:46:59.342Z,101933.38
2022-08-09T08:49:38.465Z,101932.28
2022-08-09T08:52:58.103Z,101929.69
2022-08-09T08:55:13.583Z,101936.44
2022-08-09T08:57:42.536Z,101956.41
2022-08-09T09:00:16.878Z,101954.66
2022-08-09T09:02:52.593Z,101924.47
2022-08-09T09:05:33.003Z,101956.16
2022-08-09T09:08:30.065Z,101921.44
2022-08-09T09:11:00.684Z,101942.72
2022-08-09T09:13:34.644Z,101970.28
2022-08-09T09:16:14.151Z,101963.75
2022-08-09T09:18:45.813Z,101959.28
2022-08-09T09:21:15.566Z,101954.53
2022-08-09T09:23:48.967Z,101959.34
2022-08-09T09:26:23.993Z,101944.69
2022-08-09T09:29:03.336Z,101956.53
2022-08-09T09:32:06.039Z,101926.34
2022-08-09T09:34:23.437Z,101926.03
2022-08-09T09:36:53.123Z,101936.38
2022-08-09T09:39:50.169Z,101917.88
2022-08-09T09:42:25.835Z,101935.03
2022-08-09T09:44:57.972Z,101926.81
2022-08-09T09:47:25.616Z,101931.69
2022-08-09T09:50:13.797Z,101931.22
2022-08-09T09:52:56.108Z,101933.50
2022-08-09T09:55:31.904Z,101930.53
2022-08-09T09:58:16.211Z,101933.84
2022-08-09T10:00:52.959Z,101909.31
2022-08-09T10:03:44.611Z,101936.38
2022-08-09T10:06:22.975Z,101926.63
2022-08-09T10:08:54.785Z,101928.66
2022-08-09T10:11:59.490Z,101924.97
2022-08-09T10:14:27.489Z,101930.28
2022-08-09T10:17:11.257Z,101924.03
2022-08-09T10:19:45.857Z,101914.81
2022-08-09T10:22:12.720Z,101895.41
2022-08-09T10:24:40.318Z,101889.31
2022-08-09T10:27:10.214Z,101870.44
2022-08-09T10:30:16.572Z,101890.97
2022-08-09T10:32:42.443Z,101894.72
2022-08-09T10:35:10.156Z,101890.13
2022-08-09T10:37:38.305Z,101897.31
2022-08-09T10:40:07.021Z,101885.06
2022-08-09T10:42:38.886Z,101906.88
2022-08-09T10:45:10.696Z,101885.34
2022-08-09T10:48:16.450Z,101901.06
2022-08-09T10:51:09.415Z,101892.72
2022-08-09T10:53:46.779Z,101906.09
2022-08-09T10:56:25.612Z,101902.03
2022-08-09T10:58:54.121Z,101905.22
2022-08-09T11:03:11.612Z,101865.94
2022-08-09T11:04:32.085Z,101913.06
2022-08-09T11:07:00.044Z,101909.22
2022-08-09T11:09:41.182Z,101898.03
2022-08-09T11:12:26.584Z,101886.25
2022-08-09T11:15:02.902Z,101898.84
2022-08-09T11:17:32.633Z,101893.94
2022-08-09T11:20:17.945Z,101899.16
2022-08-09T11:22:47.353Z,101896.91
2022-08-09T11:25:47.166Z,101895.41
2022-08-09T11:28:56.723Z,101897.50
2022-08-09T11:31:50.219Z,101877.78
2022-08-09T11:34:43.053Z,101881.19
2022-08-09T11:37:18.213Z,101870.91
2022-08-09T11:40:04.978Z,101888.66
2022-08-09T11:42:43.368Z,101854.59
2022-08-09T11:45:42.097Z,101867.03
2022-08-09T11:48:19.457Z,101872.66
2022-08-09T11:52:49.067Z,101862.63
2022-08-09T11:53:59.154Z,101867.69
2022-08-09T11:56:34.365Z,101853.19
2022-08-09T11:59:11.614Z,101856.66
2022-08-09T12:02:17.229Z,101866.59
2022-08-09T12:04:32.435Z,101859.78
2022-08-09T12:07:04.604Z,101854.66
2022-08-09T12:09:35.466Z,101811.09
2022-08-09T12:12:12.861Z,101858.03
2022-08-09T12:15:04.203Z,101847.97
2022-08-09T12:17:34.440Z,101853.88
2022-08-09T12:20:23.018Z,101832.88
2022-08-09T12:23:07.726Z,101842.03
2022-08-09T12:25:38.452Z,101848.41
2022-08-09T12:29:11.661Z,101854.53
2022-08-09T12:31:58.703Z,101817.56
2022-08-09T12:34:14.913Z,101852.31
2022-08-09T12:36:59.109Z,101841.69
2022-08-09T12:39:42.086Z,101826.06
2022-08-09T12:42:16.342Z,101830.09
2022-08-09T12:44:51.905Z,101822.25
2022-08-09T12:47:22.705Z,101827.63
2022-08-09T12:50:08.964Z,101840.31
2022-08-09T12:53:08.100Z,101833.66
2022-08-09T12:56:16.203Z,101838.22
2022-08-09T12:58:24.251Z,101837.09
2022-08-09T13:00:54.135Z,101845.06
2022-08-09T13:03:53.257Z,101832.34
2022-08-09T13:06:34.539Z,101826.63
2022-08-09T13:09:06.625Z,101822.53
2022-08-09T13:11:39.483Z,101815.94
2022-08-09T13:14:40.808Z,101824.34
2022-08-09T13:16:59.165Z,101818.13
2022-08-09T13:20:07.327Z,101826.16
2022-08-09T13:22:37.897Z,101826.25
2022-08-09T13:25:15.748Z,101801.66
2022-08-09T13:27:54.822Z,101807.25
2022-08-09T13:31:10.942Z,101821.78
2022-08-09T13:33:24.609Z,101787.91
2022-08-09T13:36:24.700Z,101815.50
2022-08-09T13:39:00.903Z,101785.47
2022-08-09T13:41:58.322Z,101812.53
2022-08-09T13:44:17.775Z,101807.84
2022-08-09T13:47:29.521Z,101783.50
2022-08-09T13:49:39.537Z,101769.13
2022-08-09T13:52:19.625Z,101799.50
2022-08-09T13:54:58.863Z,101762.53
2022-08-09T13:57:36.306Z,101794.47
2022-08-09T14:00:13.089Z,101760.53
2022-08-09T14:03:02.136Z,101797.31
2022-08-09T14:05:58.266Z,101807.97
2022-08-09T14:08:17.633Z,101797.81
2022-08-09T14:10:50.384Z,101768.47
2022-08-09T14:13:21.689Z,101758.56
2022-08-09T14:16:10.856Z,101803.56
2022-08-09T14:18:45.194Z,101771.53
2022-08-09T14:21:17.549Z,101754.81
2022-08-09T14:23:55.108Z,101805.28
2022-08-09T14:26:32.748Z,101748.53
2022-08-09T14:30:15.241Z,101772.34
2022-08-09T14:32:11.404Z,101781.06
2022-08-09T14:34:42.757Z,101791.59
2022-08-09T14:37:09.450Z,101769.72
2022-08-09T14:39:46.468Z,101778.53
2022-08-09T14:42:31.002Z,101781.81
2022-08-09T14:46:39.921Z,101779.75
2022-08-09T14:47:58.055Z,101762.66
2022-08-09T14:50:28.166Z,101796.00
2022-08-09T14:52:54.815Z,101793.16
2022-08-09T14:55:21.578Z,101758.03
2022-08-09T14:57:49.176Z,101770.06
2022-08-09T15:00:16.785Z,101767.34
2022-08-09T15:02:47.489Z,101783.72
2022-08-09T15:05:16.169Z,101766.88
2022-08-09T15:07:45.384Z,101759.75
2022-08-09T15:10:14.203Z,101771.31
2022-08-09T15:12:44.978Z,101784.22
2022-08-09T15:15:13.140Z,101787.25
2022-08-09T15:17:42.192Z,101770.19
2022-08-09T15:20:15.322Z,101747.97
2022-08-09T15:24:01.587Z,101781.75
2022-08-09T15:25:53.552Z,101759.06
2022-08-09T15:28:26.477Z,101761.00
2022-08-09T15:31:03.229Z,101781.25
2022-08-09T15:34:17.333Z,101761.59
2022-08-09T15:36:28.896Z,101755.03
2022-08-09T15:38:57.747Z,101768.88
2022-08-09T15:41:31.934Z,101774.00
2022-08-09T15:44:02.802Z,101769.13
2022-08-09T15:46:32.628Z,101774.97
2022-08-09T15:49:22.658Z,101736.88
2022-08-09T15:52:02.943Z,101757.41
2022-08-09T15:54:46.148Z,101774.63
2022-08-09T15:57:34.986Z,101780.28
2022-08-09T16:00:14.840Z,101765.19
2022-08-09T16:02:48.188Z,101747.88
2022-08-09T16:05:22.515Z,101761.19
2022-08-09T16:07:50.683Z,101756.91
2022-08-09T16:10:55.312Z,101760.03
2022-08-09T16:13:04.709Z,101734.28
2022-08-09T16:16:12.231Z,101746.63
2022-08-09T16:18:32.056Z,101733.03
2022-08-09T16:20:59.240Z,101748.28
2022-08-09T16:23:26.931Z,101759.28
2022-08-09T16:25:54.781Z,101760.81
2022-08-09T16:28:29.251Z,101766.56
2022-08-09T16:30:58.936Z,101753.41
2022-08-09T16:33:26.851Z,101742.41
2022-08-09T16:35:58.235Z,101757.34
2022-08-09T16:38:27.522Z,101759.63
2022-08-09T16:40:56.929Z,101751.53
2022-08-09T16:43:24.457Z,101757.66
2022-08-09T16:45:54.026Z,101731.72
2022-08-09T16:48:40.747Z,101745.06
2022-08-09T16:51:13.824Z,101724.03
2022-08-09T16:54:02.336Z,101752.44
2022-08-09T16:56:30.484Z,101711.94
2022-08-09T16:58:57.778Z,101750.09
2022-08-09T17:01:24.986Z,101764.09
2022-08-09T17:03:51.995Z,101753.72
2022-08-09T17:06:31.958Z,101763.53
2022-08-09T17:09:16.175Z,101753.28
2022-08-09T17:11:51.374Z,101760.34
2022-08-09T17:14:27.090Z,101742.34
2022-08-09T17:17:01.026Z,101759.56
2022-08-09T17:20:06.075Z,101759.75
2022-08-09T17:22:25.006Z,101763.00
2022-08-09T17:25:03.252Z,101762.38
2022-08-09T17:27:38.206Z,101772.19
2022-08-09T17:30:07.084Z,101770.63
2022-08-09T17:32:39.885Z,101770.19
2022-08-09T17:35:12.851Z,101755.66
2022-08-09T17:38:12.992Z,101760.97
2022-08-09T17:40:32.132Z,101778.72
2022-08-09T17:43:10.853Z,101778.25
2022-08-09T17:46:03.170Z,101736.84
2022-08-09T17:48:31.863Z,101770.22
2022-08-09T17:50:59.296Z,101749.47
2022-08-09T17:53:43.513Z,101789.34
2022-08-09T17:56:18.553Z,101777.38
2022-08-09T17:58:45.239Z,101761.00
2022-08-09T18:01:22.560Z,101785.78
2022-08-09T18:03:54.284Z,101791.25
2022-08-09T18:06:30.968Z,101769.84
2022-08-09T18:09:01.731Z,101800.72
2022-08-09T18:11:29.908Z,101797.75
2022-08-09T18:14:00.454Z,101802.16
2022-08-09T18:16:32.842Z,101799.22
2022-08-09T18:19:03.820Z,101803.84
2022-08-09T18:21:41.579Z,101810.34
2022-08-09T18:24:14.521Z,101804.91
2022-08-09T18:26:45.897Z,101784.97
2022-08-09T18:30:35.613Z,101800.69
2022-08-09T18:32:00.851Z,101766.91
2022-08-09T18:34:31.452Z,101793.91
2022-08-09T18:36:58.392Z,101797.34
2022-08-09T18:39:25.802Z,101807.75
2022-08-09T18:42:01.776Z,101815.09
2022-08-09T18:44:28.350Z,101773.50
2022-08-09T18:47:06.467Z,101817.19
2022-08-09T18:49:41.445Z,101805.75
2022-08-09T18:52:14.037Z,101823.69
2022-08-09T18:54:49.625Z,101835.22
2022-08-09T18:57:22.011Z,101767.56
2022-08-09T18:59:57.798Z,101802.78
2022-08-09T19:02:32.418Z,101799.56
2022-08-09T19:05:20.698Z,101801.19
2022-08-09T19:08:04.137Z,101814.22
2022-08-09T19:10:39.276Z,101834.72
2022-08-09T19:13:22.012Z,101839.41
2022-08-09T19:15:51.298Z,101834.78
2022-08-09T19:18:34.086Z,101819.22
2022-08-09T19:21:09.435Z,101788.09
2022-08-09T19:24:39.489Z,101842.88
2022-08-09T19:26:32.316Z,101846.25
2022-08-09T19:29:09.409Z,101819.31
2022-08-09T19:31:44.926Z,101825.09
2022-08-09T19:34:22.062Z,101846.63
2022-08-09T19:36:57.421Z,101834.63
2022-08-09T19:39:43.110Z,101862.97
2022-08-09T19:42:14.451Z,101821.09
2022-08-09T19:44:42.153Z,101839.91
2022-08-09T19:47:09.089Z,101865.88
2022-08-09T19:50:08.671Z,101866.44
2022-08-09T19:52:26.236Z,101860.16
2022-08-09T19:54:52.865Z,101853.69
2022-08-09T19:57:25.561Z,101832.00
2022-08-09T20:00:06.295Z,101722.53
2022-08-09T20:04:11.491Z,101864.59
2022-08-09T20:05:24.053Z,101857.19
2022-08-09T20:07:58.864Z,101865.66
2022-08-09T20:10:36.485Z,101841.56
2022-08-09T20:13:05.467Z,101856.31
2022-08-09T20:16:38.149Z,101863.16
2022-08-09T20:18:19.721Z,101826.13
2022-08-09T20:20:47.076Z,101829.16
2022-08-09T20:23:13.632Z,101852.63
2022-08-09T20:25:51.696Z,101855.69
2022-08-09T20:28:27.727Z,101830.19
2022-08-09T20:30:54.865Z,101821.81
2022-08-09T20:33:21.949Z,101853.88
2022-08-09T20:35:50.731Z,101853.69
2022-08-09T20:38:34.013Z,101850.28
2022-08-09T20:41:05.262Z,101849.47
2022-08-09T20:43:32.825Z,101847.19
2022-08-09T20:46:33.497Z,101843.97
2022-08-09T20:48:45.973Z,101799.59
2022-08-09T20:51:19.644Z,101848.22
2022-08-09T20:53:46.632Z,101835.22
2022-08-09T20:56:21.085Z,101814.63
2022-08-09T20:58:50.363Z,101824.72
2022-08-09T21:01:35.418Z,101831.41
2022-08-09T21:05:48.605Z,101823.25
2022-08-09T21:06:53.968Z,101848.72
2022-08-09T21:09:32.736Z,101818.50
2022-08-09T21:14:41.572Z,101865.06
2022-08-09T21:18:11.773Z,101824.03
2022-08-09T21:20:17.645Z,101831.81
2022-08-09T21:22:43.068Z,101830.13
2022-08-09T21:25:37.700Z,101858.22
2022-08-09T21:28:07.366Z,101857.88
2022-08-09T21:30:40.578Z,101833.22
2022-08-09T21:33:08.498Z,101833.13
2022-08-09T21:35:39.486Z,101820.28
2022-08-09T21:38:19.026Z,101865.47
2022-08-09T21:40:57.794Z,101862.63
2022-08-09T21:43:46.769Z,101837.19
2022-08-09T21:46:11.112Z,101856.00
2022-08-09T21:48:38.662Z,101851.78
2022-08-09T21:51:13.969Z,101875.66
2022-08-09T21:53:54.545Z,101846.44
2022-08-09T21:56:43.522Z,101867.50
2022-08-09T21:59:09.289Z,101867.44
2022-08-09T22:01:58.543Z,101884.69
2022-08-09T22:04:22.828Z,101866.91
2022-08-09T22:07:09.393Z,101886.16
2022-08-09T22:09:38.768Z,101871.72
2022-08-09T22:12:18.793Z,101842.56
2022-08-09T22:14:57.866Z,101854.09
2022-08-09T22:17:24.414Z,101894.00
2022-08-09T22:19:58.674Z,101891.25
2022-08-09T22:22:27.321Z,101875.69
2022-08-09T22:26:05.334Z,101848.72
2022-08-09T22:27:40.554Z,101884.03
2022-08-09T22:30:09.597Z,101902.69
2022-08-09T22:32:36.196Z,101905.75
2022-08-09T22:35:06.815Z,101903.16
2022-08-09T22:38:07.107Z,101902.47
2022-08-09T22:40:34.249Z,101896.50
2022-08-09T22:43:00.934Z,101904.47
2022-08-09T22:48:10.523Z,101909.81
2022-08-09T22:48:34.501Z,101899.44
2022-08-09T22:51:01.678Z,101903.63
2022-08-09T22:53:58.727Z,101891.47
2022-08-09T22:56:33.797Z,101889.69
2022-08-09T22:59:06.094Z,101895.13
2022-08-09T23:01:51.473Z,101916.28
2022-08-09T23:04:18.113Z,101899.19
2022-08-09T23:07:03.895Z,101890.38
2022-08-09T23:09:38.321Z,101886.72
2022-08-09T23:12:05.516Z,101900.66
2022-08-09T23:14:41.634Z,101879.22
2022-08-09T23:17:08.734Z,101896.09
2022-08-09T23:20:00.895Z,101918.09
2022-08-09T23:22:21.858Z,101912.53
2022-08-09T23:24:48.805Z,101908.44
2022-08-09T23:27:15.739Z,101897.00
2022-08-09T23:29:42.263Z,101908.78
2022-08-09T23:32:10.084Z,101890.88
2022-08-09T23:34:36.784Z,101904.38
2022-08-09T23:37:04.478Z,101897.47
2022-08-09T23:39:31.473Z,101890.41
2022-08-09T23:41:58.215Z,101902.72
2022-08-09T23:44:24.827Z,101907.50
2022-08-09T23:46:52.888Z,101906.91
2022-08-09T23:49:24.984Z,101904.09
2022-08-09T23:51:52.298Z,101853.72
2022-08-09T23:54:19.866Z,101910.66
2022-08-09T23:56:54.377Z,101902.09
2022-08-09T23:59:24.160Z,101894.97
